默认 日期 大小 文件数 浏览量 最新下载 xml
cardio磁力链接相关资源由用户搜索指令自动获取,结果来源于网络,本站不存储任何资料,亦不承担任何责任,请于24小时内删除,搜索到498个磁力,用时0ms。
    {"cover.jpg": 84807, "15. DJ Kee - Smash (Fitness Version 128 Bpm).mp3": 8756240, "04. DJ Hush - Go Hard (Fitness Version 128 Bpm).mp3": 9694453, "12. Heartclub - Muscles (Fitness Version 128 Bpm).mp3": 10294827, "09. DJ Space'c - Azukita (Fitness Version ...
创建时间: 2021-08-16 05:27:43 大小:136.72 MB 文件数量:16 热度:6 最近下载:2025-01-09 12:12:08
    {"Cardio Sucks! -The Simple Science of Burning Fat Fast and Getting in Shape.epub": 1344783}
创建时间: 2021-09-12 05:49:02 大小:1.28 MB 文件数量:1 热度:6 最近下载:2025-01-16 04:45:02
    {"folder.jpg": 94347, "07. TFU - Young Folks.mp3": 6963725, "13. Joel Corry - Lonely.mp3": 7736950, "25. Wahlstedt - Feel It.mp3": 7028509, "76. Braaheim - Call Me Up.mp3": 6128852, "64. MOKABY - Lonely With U.mp3": 7419301, "20. Owen Norton - The Night. ...
创建时间: 2021-09-13 15:37:15 大小:504.57 MB 文件数量:79 热度:4 最近下载:2025-02-04 14:17:05
    {"07. TFU - Young Folks.mp3": 7083244, "13. Joel Corry - Lonely.mp3": 7856491, "25. Wahlstedt - Feel It.mp3": 7148028, "76. Braaheim - Call Me Up.mp3": 6248371, "64. MOKABY - Lonely With U.mp3": 7538820, "20. Owen Norton - The Night.mp3": 7264011, "71. Ed ...
创建时间: 2021-09-13 17:53:08 大小:513.38 MB 文件数量:78 热度:4 最近下载:2025-02-22 18:19:01
    {"11. Groovy 69 - Playbox (Fitness Version 135 Bpm).mp3": 8750222, "01. Kyria - Girl from Rio (Fitness Version 135 Bpm).mp3": 10602589, "15. D'Mixmasters - Working (Fitness Version 135 Bpm).mp3": 10676852, "05. Kangaroo - Don't Go Yet (Fitness Version 135 ...
创建时间: 2021-09-19 23:52:33 大小:149.11 MB 文件数量:15 热度:5 最近下载:2025-01-25 16:32:02
    {"cover.jpg": 92403, "06. Red Hardin - Dura (Fitness Version 128 Bpm).mp3": 10899540, "12. Lawrence - Finesse (Fitness Version 128 Bpm).mp3": 10299768, "01. Red Hardin - Calypso (Fitness Version 128 Bpm).mp3": 9700003, "02. Dj Space'c - Azukita (Fitness ...
创建时间: 2021-09-23 19:41:55 大小:136.68 MB 文件数量:16 热度:3 最近下载:2025-01-07 19:13:01
    {"nfo.nfo": 2555, "Front.jpg": 66594, "19-Toni G - Indiana (Extended Mix).mp3": 11785624, "16-Jose Alfredo - Bumbeo (Extended Mix).mp3": 12341504, "06-Dj Ago - Voy Pal Party (Extended Mix).mp3": 12304943, "14-Jhon Kleiber - Sumbame (Extended Mix).mp3": ...
创建时间: 2021-09-29 13:32:50 大小:422.79 MB 文件数量:32 热度:11 最近下载:2025-04-26 22:02:01
    {"Provided by torrentgalaxy.to .nfo": 678, "ALSScan.21.03.05.Audrey.Hempburne.Cardio.XXX.720p.WEB.x264-GalaXXXy.mkv": 97499358}
创建时间: 2021-10-06 15:47:29 大小:92.98 MB 文件数量:2 热度:8 最近下载:2025-02-01 07:58:02
    {"ZCUT_D1_01.avi": 167944192, "ZCUT_D1_02.avi": 258715648, "ZCUT_D1_03.avi": 174804992, "ZCUT_D1_04.avi": 216766464, "ZCUT_D2_05.avi": 174848000, "ZCUT_D2_06.avi": 171218944, "ZCUT_D2_07.avi": 184756224, "ZCUT_D2_08.avi": 235614208, "ZCUT_D3_09.avi": ...
创建时间: 2021-10-09 23:07:02 大小:2.58 GB 文件数量:15 热度:5 最近下载:2025-03-07 21:01:47
    {"cardio_cock_big.mp4": 517081246}
创建时间: 2021-11-21 05:58:06 大小:493.13 MB 文件数量:1 热度:4 最近下载:2025-03-03 11:13:05
    {"cardio_cock_big.mp4": 517081246}
创建时间: 2021-11-23 11:45:35 大小:493.13 MB 文件数量:1 热度:4 最近下载:2025-02-10 03:55:01
    ... ": 21116305, "16. Various Artists - Extreme Cardio, Vol. 2 (Continuous Dj Mix ... ": 156904989, "32. Various Artists - Extreme Cardio, Vol. 2 (Continuous Dj Mix ...
创建时间: 2021-12-02 05:31:29 大小:798.37 MB 文件数量:34 热度:5 最近下载:2025-03-03 16:54:02
    {"22455-540p.mp4": 512181405}
创建时间: 2021-12-05 23:17:49 大小:488.45 MB 文件数量:1 热度:6 最近下载:2025-01-05 10:18:03
    ... .vip-The Right Kind of Cardio.jpg": 121193, "@蜂鳥@fengniao151 ... .vip-The Right Kind of Cardio.mp4": 1147452776, "-5-王者 ...
创建时间: 2021-12-06 08:30:40 大小:1.07 GB 文件数量:13 热度:5 最近下载:2025-02-09 09:49:10
    {"VIDEO_TS.BUP": 8192, "VIDEO_TS.IFO": 8192, "VTS_01_0.BUP": 92160, "VTS_01_0.IFO": 92160, "VTS_01_0.VOB": 62322688, "VTS_01_1.VOB": 1073739776, "VTS_01_2.VOB": 1073739776, "VTS_01_3.VOB": 1073739776, "VTS_01_4.VOB": 894822400, "VTS_02_0.BUP": 18432, " ...
创建时间: 2022-01-05 14:07:06 大小:3.89 GB 文件数量:13 热度:6 最近下载:2025-02-19 20:55:02
    {"milfbody.22.02.04.vanessa.cage.boyfriend.cardio.mp4": 359080708}
创建时间: 2022-02-04 14:51:43 大小:342.45 MB 文件数量:1 热度:9 最近下载:2025-02-25 06:45:01
    {"Provided by PornRips.to.nfo": 47, "MilfBody.22.02.04.Vanessa.Cage.Boyfriend.Cardio.XXX.720p.HEVC.x265.PRT.mp4": 348951088}
创建时间: 2022-02-05 11:42:00 大小:332.79 MB 文件数量:2 热度:11 最近下载:2025-03-06 02:43:02
    {"milfbody.22.02.04.vanessa.cage.boyfriend.cardio.mp4": 359080708}
创建时间: 2022-02-05 12:09:13 大小:342.45 MB 文件数量:1 热度:10 最近下载:2025-03-06 12:44:02
    {"RARBG.txt": 30, "RARBG_DO_NOT_MIRROR.exe": 99, "milfbody.22.02.04.vanessa.cage.boyfriend.cardio.mp4": 847867512, "milfbody.22.02.04.vanessa.cage.boyfriend.cardio.nfo": 525}
创建时间: 2022-02-06 14:22:03 大小:808.59 MB 文件数量:4 热度:27 最近下载:2025-09-17 18:41:07
    {"RARBG.txt": 30, "RARBG_DO_NOT_MIRROR.exe": 99, "MilfBody.22.02.04.Vanessa.Cage.Boyfriend.Cardio.XXX.SD.MP4-KLEENEX.mp4": 351445807}
创建时间: 2022-02-06 21:49:14 大小:335.16 MB 文件数量:3 热度:8 最近下载:2025-02-15 21:16:03